createdAt,value
2019-05-29T00:00:25.720Z,66.71
2019-05-29T00:01:02.326Z,66.58
2019-05-29T00:01:37.960Z,66.58
2019-05-29T00:02:14.229Z,66.74
2019-05-29T00:02:50.255Z,66.79
2019-05-29T00:03:25.890Z,66.73
2019-05-29T00:04:01.711Z,67.25
2019-05-29T00:04:37.740Z,67.25
2019-05-29T00:05:14.300Z,67.01
2019-05-29T00:05:50.515Z,67.15
2019-05-29T00:06:26.954Z,67.01
2019-05-29T00:07:02.618Z,67.21
2019-05-29T00:07:38.476Z,67.22
2019-05-29T00:08:14.767Z,67.13
2019-05-29T00:08:50.593Z,67.25
2019-05-29T00:09:27.103Z,67.20
2019-05-29T00:10:03.692Z,67.15
2019-05-29T00:10:40.754Z,67.04
2019-05-29T00:11:16.662Z,67.24
2019-05-29T00:11:53.138Z,67.21
2019-05-29T00:12:28.798Z,67.15
2019-05-29T00:13:04.638Z,67.22
2019-05-29T00:13:41.398Z,67.13
2019-05-29T00:14:25.789Z,67.15
2019-05-29T00:14:54.576Z,67.13
2019-05-29T00:15:30.864Z,67.32
2019-05-29T00:16:06.927Z,67.37
2019-05-29T00:16:43.776Z,67.28
2019-05-29T00:17:20.171Z,67.27
2019-05-29T00:17:55.803Z,67.26
2019-05-29T00:18:31.635Z,67.49
2019-05-29T00:19:08.753Z,67.37
2019-05-29T00:19:44.474Z,67.68
2019-05-29T00:20:20.370Z,67.48
2019-05-29T00:20:56.406Z,67.57
2019-05-29T00:21:34.121Z,67.36
2019-05-29T00:22:10.369Z,67.17
2019-05-29T00:22:46.405Z,67.45
2019-05-29T00:23:22.089Z,67.45
2019-05-29T00:23:58.195Z,67.29
2019-05-29T00:24:34.551Z,67.48
2019-05-29T00:25:10.935Z,67.63
2019-05-29T00:25:46.752Z,67.78
2019-05-29T00:26:22.839Z,67.81
2019-05-29T00:26:58.793Z,67.86
2019-05-29T00:27:34.621Z,67.91
2019-05-29T00:28:11.230Z,67.97
2019-05-29T00:28:47.181Z,67.82
2019-05-29T00:29:23.395Z,67.86
2019-05-29T00:29:59.838Z,68.12
2019-05-29T00:30:35.867Z,68.06
2019-05-29T00:31:12.538Z,68.00
2019-05-29T00:31:49.039Z,67.84
2019-05-29T00:32:24.901Z,67.85
2019-05-29T00:33:01.367Z,67.83
2019-05-29T00:33:37.401Z,67.92
2019-05-29T00:34:13.395Z,68.00
2019-05-29T00:34:49.255Z,68.10
2019-05-29T00:35:25.331Z,68.35
2019-05-29T00:36:00.983Z,68.36
2019-05-29T00:36:37.233Z,68.48
2019-05-29T00:37:14.542Z,68.42
2019-05-29T00:37:50.795Z,68.50
2019-05-29T00:38:27.265Z,68.50
2019-05-29T00:39:03.624Z,68.68
2019-05-29T00:39:39.996Z,69.20
2019-05-29T00:40:17.106Z,69.20
2019-05-29T00:40:53.280Z,69.24
2019-05-29T00:41:29.242Z,69.10
2019-05-29T00:42:05.371Z,69.00
2019-05-29T00:42:41.419Z,69.35
2019-05-29T00:43:17.597Z,69.35
2019-05-29T00:43:53.863Z,69.23
2019-05-29T00:44:34.253Z,69.23
2019-05-29T00:45:09.530Z,69.45
2019-05-29T00:45:45.501Z,69.57
2019-05-29T00:46:21.949Z,69.71
2019-05-29T00:46:57.894Z,69.84
2019-05-29T00:47:33.753Z,69.75
2019-05-29T00:48:09.772Z,69.67
2019-05-29T00:48:45.464Z,69.62
2019-05-29T00:49:22.876Z,69.41
2019-05-29T00:49:59.329Z,69.41
2019-05-29T00:50:35.111Z,69.39
2019-05-29T00:51:11.472Z,69.60
2019-05-29T00:51:47.792Z,69.73
2019-05-29T00:52:23.753Z,69.85
2019-05-29T00:52:59.617Z,69.75
2019-05-29T00:53:35.666Z,69.41
2019-05-29T00:54:12.488Z,69.38
2019-05-29T00:54:48.732Z,69.49
2019-05-29T00:55:25.255Z,69.67
2019-05-29T00:56:01.317Z,69.72
2019-05-29T00:56:37.151Z,69.74
2019-05-29T00:57:13.494Z,69.71
2019-05-29T00:57:49.294Z,69.95
2019-05-29T00:58:25.494Z,69.99
2019-05-29T00:59:01.547Z,69.91
2019-05-29T00:59:38.281Z,70.09
2019-05-29T01:00:15.268Z,70.14
2019-05-29T01:00:51.336Z,69.84
2019-05-29T01:01:27.026Z,69.88
2019-05-29T01:02:03.876Z,69.98
2019-05-29T01:02:39.910Z,69.96
2019-05-29T01:03:15.921Z,70.02
2019-05-29T01:03:52.597Z,69.52
2019-05-29T01:04:28.715Z,69.52
2019-05-29T01:05:05.169Z,69.63
2019-05-29T01:05:40.981Z,69.59
2019-05-29T01:06:18.146Z,69.58
2019-05-29T01:06:53.872Z,69.58
2019-05-29T01:07:29.708Z,69.54
2019-05-29T01:08:05.770Z,69.46
2019-05-29T01:08:41.412Z,69.26
2019-05-29T01:09:18.376Z,69.80
2019-05-29T01:09:55.096Z,69.80
2019-05-29T01:10:31.112Z,69.70
2019-05-29T01:11:07.040Z,69.58
2019-05-29T01:11:43.415Z,69.58
2019-05-29T01:12:19.221Z,69.79
2019-05-29T01:12:55.254Z,69.84
2019-05-29T01:13:31.682Z,69.97
2019-05-29T01:14:07.301Z,69.89
2019-05-29T01:14:49.984Z,69.89
2019-05-29T01:15:22.187Z,69.89
2019-05-29T01:15:58.211Z,69.96
2019-05-29T01:16:34.999Z,69.89
2019-05-29T01:17:12.184Z,69.81
2019-05-29T01:17:48.022Z,69.88
2019-05-29T01:18:24.191Z,69.88
2019-05-29T01:19:20.293Z,69.77
2019-05-29T01:19:56.344Z,69.73
2019-05-29T01:20:32.688Z,69.61
2019-05-29T01:21:08.748Z,69.68
2019-05-29T01:21:44.757Z,69.50
2019-05-29T01:22:20.714Z,69.67
2019-05-29T01:22:56.931Z,69.67
2019-05-29T01:23:32.943Z,69.80
2019-05-29T01:24:08.846Z,69.54
2019-05-29T01:24:45.401Z,69.67
2019-05-29T01:25:22.628Z,69.69
2019-05-29T01:25:59.173Z,69.66
2019-05-29T01:26:35.353Z,69.49
2019-05-29T01:27:11.159Z,69.58
2019-05-29T01:27:47.426Z,69.58
2019-05-29T01:28:23.613Z,69.62
2019-05-29T01:28:59.838Z,69.49
2019-05-29T01:29:36.487Z,69.43
2019-05-29T01:30:13.146Z,68.99
2019-05-29T01:30:51.449Z,68.99
2019-05-29T01:31:26.761Z,69.20
2019-05-29T01:32:03.109Z,69.39
2019-05-29T01:32:38.827Z,69.43
2019-05-29T01:33:18.536Z,69.43
2019-05-29T01:33:53.118Z,69.50
2019-05-29T01:34:29.161Z,69.73
2019-05-29T01:35:05.381Z,69.73
2019-05-29T01:35:41.774Z,69.95
2019-05-29T01:36:18.134Z,69.38
2019-05-29T01:36:54.077Z,69.57
2019-05-29T01:37:30.368Z,69.82
2019-05-29T01:38:06.381Z,69.82
2019-05-29T01:38:42.215Z,69.85
2019-05-29T01:39:19.344Z,69.85
2019-05-29T01:39:55.498Z,70.20
2019-05-29T01:40:31.347Z,69.73
2019-05-29T01:41:07.473Z,70.02
2019-05-29T01:41:43.515Z,69.96
2019-05-29T01:42:19.560Z,70.13
2019-05-29T01:42:56.012Z,69.93
2019-05-29T01:43:32.020Z,70.13
2019-05-29T01:44:07.836Z,70.20
2019-05-29T01:44:44.243Z,70.19
2019-05-29T01:45:20.045Z,70.16
2019-05-29T01:45:56.007Z,70.31
2019-05-29T01:46:32.053Z,70.31
2019-05-29T01:47:08.009Z,70.24
2019-05-29T01:47:44.554Z,70.36
2019-05-29T01:48:21.592Z,70.94
2019-05-29T01:48:57.455Z,70.94
2019-05-29T01:49:33.629Z,70.90
2019-05-29T01:50:09.747Z,70.79
2019-05-29T01:50:45.750Z,70.64
2019-05-29T01:51:23.549Z,70.83
2019-05-29T01:52:00.152Z,70.83
2019-05-29T01:52:36.611Z,69.98
2019-05-29T01:53:12.489Z,70.56
2019-05-29T01:53:48.971Z,70.56
2019-05-29T01:54:25.110Z,70.37
2019-05-29T01:55:01.084Z,70.41
2019-05-29T01:55:37.267Z,70.90
2019-05-29T01:56:13.665Z,70.90
2019-05-29T01:56:49.894Z,70.72
2019-05-29T01:57:26.271Z,70.55
2019-05-29T01:58:02.075Z,70.62
2019-05-29T01:58:38.316Z,70.58
2019-05-29T01:59:15.701Z,70.33
2019-05-29T01:59:51.531Z,70.48
2019-05-29T02:00:28.498Z,70.48
2019-05-29T02:01:04.696Z,70.75
2019-05-29T02:01:40.426Z,70.91
2019-05-29T02:02:17.696Z,70.91
2019-05-29T02:02:53.880Z,70.99
2019-05-29T02:03:29.916Z,70.75
2019-05-29T02:04:05.754Z,70.54
2019-05-29T02:04:41.754Z,70.62
2019-05-29T02:05:17.856Z,71.03
2019-05-29T02:05:54.597Z,71.08
2019-05-29T02:06:31.054Z,71.33
2019-05-29T02:07:06.750Z,71.33
2019-05-29T02:07:42.965Z,71.39
2019-05-29T02:08:20.035Z,71.82
2019-05-29T02:08:56.229Z,72.04
2019-05-29T02:09:32.839Z,72.05
2019-05-29T02:10:09.699Z,72.00
2019-05-29T02:10:45.344Z,71.99
2019-05-29T02:11:21.338Z,72.15
2019-05-29T02:11:57.504Z,71.86
2019-05-29T02:12:33.158Z,72.07
2019-05-29T02:13:08.991Z,72.13
2019-05-29T02:13:45.055Z,72.27
2019-05-29T02:14:20.686Z,72.14
2019-05-29T02:14:56.538Z,72.30
2019-05-29T02:15:34.129Z,72.33
2019-05-29T02:16:09.843Z,72.30
2019-05-29T02:16:46.347Z,72.30
2019-05-29T02:17:23.836Z,72.28
2019-05-29T02:18:00.439Z,72.23
2019-05-29T02:18:36.338Z,72.25
2019-05-29T02:19:12.686Z,72.23
2019-05-29T02:19:48.337Z,72.23
2019-05-29T02:20:25.191Z,72.28
2019-05-29T02:21:01.567Z,72.18
2019-05-29T02:21:37.323Z,72.29
2019-05-29T02:22:14.069Z,72.26
2019-05-29T02:22:50.095Z,72.16
2019-05-29T02:23:25.850Z,72.08
2019-05-29T02:24:01.745Z,71.92
2019-05-29T02:24:38.144Z,71.95
2019-05-29T02:25:16.029Z,71.98
2019-05-29T02:25:51.349Z,71.97
2019-05-29T02:26:27.410Z,71.81
2019-05-29T02:27:03.561Z,71.96
2019-05-29T02:27:39.400Z,72.33
2019-05-29T02:28:16.323Z,72.06
2019-05-29T02:28:52.736Z,72.03
2019-05-29T02:29:28.905Z,71.92
2019-05-29T02:30:06.104Z,72.15
2019-05-29T02:30:41.774Z,72.10
2019-05-29T02:31:19.470Z,72.10
2019-05-29T02:31:55.709Z,71.76
2019-05-29T02:32:31.373Z,71.78
2019-05-29T02:33:07.207Z,71.38
2019-05-29T02:33:43.700Z,71.38
2019-05-29T02:34:20.047Z,71.81
2019-05-29T02:34:56.092Z,71.85
2019-05-29T02:35:32.545Z,71.95
2019-05-29T02:36:08.502Z,71.82
2019-05-29T02:36:44.381Z,71.66
2019-05-29T02:37:22.177Z,71.66
2019-05-29T02:37:58.475Z,71.72
2019-05-29T02:38:34.264Z,71.72
2019-05-29T02:39:10.675Z,72.04
2019-05-29T02:39:46.366Z,72.08
2019-05-29T02:40:24.140Z,71.78
2019-05-29T02:40:59.981Z,71.60
2019-05-29T02:41:36.111Z,71.57
2019-05-29T02:42:11.928Z,71.40
2019-05-29T02:42:48.355Z,71.39
2019-05-29T02:43:25.998Z,71.49
2019-05-29T02:44:01.990Z,71.57
2019-05-29T02:44:38.840Z,71.55
2019-05-29T02:45:14.799Z,71.43
2019-05-29T02:45:54.615Z,71.45
2019-05-29T02:46:30.118Z,71.57
2019-05-29T02:47:05.943Z,71.12
2019-05-29T02:47:41.794Z,71.12
2019-05-29T02:48:17.878Z,71.64
2019-05-29T02:48:53.589Z,71.87
2019-05-29T02:49:30.431Z,72.06
2019-05-29T02:50:07.625Z,72.06
2019-05-29T02:50:43.255Z,71.96
2019-05-29T02:51:19.817Z,71.97
2019-05-29T02:51:56.341Z,72.10
2019-05-29T02:52:32.416Z,72.16
2019-05-29T02:53:08.592Z,72.19
2019-05-29T02:53:45.596Z,72.25
2019-05-29T02:54:22.512Z,72.12
2019-05-29T02:54:58.881Z,72.05
2019-05-29T02:55:35.350Z,72.04
2019-05-29T02:56:11.041Z,72.18
2019-05-29T02:56:46.867Z,72.06
2019-05-29T02:57:22.975Z,72.06
2019-05-29T02:57:59.124Z,72.06
2019-05-29T02:58:34.966Z,72.01
2019-05-29T02:59:11.069Z,71.85
2019-05-29T02:59:46.872Z,71.84
2019-05-29T03:00:27.635Z,71.94
2019-05-29T03:01:04.691Z,72.00
2019-05-29T03:01:40.386Z,71.60
2019-05-29T03:02:16.217Z,71.74
2019-05-29T03:02:52.829Z,71.95
2019-05-29T03:03:31.227Z,72.07
2019-05-29T03:04:06.515Z,72.15
2019-05-29T03:04:43.234Z,72.38
2019-05-29T03:05:19.174Z,72.38
2019-05-29T03:05:55.688Z,72.31
2019-05-29T03:06:32.381Z,72.42
2019-05-29T03:07:08.155Z,72.46
2019-05-29T03:07:43.981Z,72.73
2019-05-29T03:08:22.269Z,72.71
2019-05-29T03:08:58.045Z,72.84
2019-05-29T03:09:34.696Z,72.77
2019-05-29T03:10:11.908Z,72.58
2019-05-29T03:10:47.786Z,72.63
2019-05-29T03:11:25.120Z,72.39
2019-05-29T03:12:01.953Z,72.30
2019-05-29T03:12:38.303Z,72.39
2019-05-29T03:13:14.484Z,72.39
2019-05-29T03:13:50.531Z,72.45
2019-05-29T03:14:27.355Z,72.40
2019-05-29T03:15:03.503Z,72.39
2019-05-29T03:15:39.688Z,72.34
2019-05-29T03:16:15.325Z,72.48
2019-05-29T03:16:51.476Z,72.47
2019-05-29T03:17:27.979Z,72.67
2019-05-29T03:18:04.962Z,72.74
2019-05-29T03:18:40.778Z,72.82
2019-05-29T03:19:16.845Z,72.63
2019-05-29T03:19:52.521Z,72.48
2019-05-29T03:20:30.262Z,72.52
2019-05-29T03:21:06.786Z,72.71
2019-05-29T03:21:42.736Z,72.54
2019-05-29T03:22:18.569Z,72.68
2019-05-29T03:22:54.635Z,72.39
2019-05-29T03:23:31.124Z,72.44
2019-05-29T03:24:08.241Z,72.30
2019-05-29T03:24:44.605Z,72.46
2019-05-29T03:25:20.245Z,72.36
2019-05-29T03:25:56.104Z,72.37
2019-05-29T03:26:33.465Z,72.52
2019-05-29T03:27:09.621Z,72.64
2019-05-29T03:27:45.439Z,72.28
2019-05-29T03:28:21.601Z,72.41
2019-05-29T03:28:57.307Z,72.49
2019-05-29T03:29:34.273Z,72.55
2019-05-29T03:30:10.694Z,72.44
2019-05-29T03:30:46.647Z,72.31
2019-05-29T03:31:22.903Z,72.22
2019-05-29T03:31:58.968Z,72.17
2019-05-29T03:32:43.506Z,72.19
2019-05-29T03:33:12.584Z,72.37
2019-05-29T03:33:50.891Z,72.19
2019-05-29T03:34:28.518Z,72.13
2019-05-29T03:35:03.757Z,72.26
2019-05-29T03:35:47.578Z,72.37
2019-05-29T03:36:17.173Z,72.25
2019-05-29T03:36:53.483Z,72.25
2019-05-29T03:37:30.368Z,72.13
2019-05-29T03:38:06.580Z,72.16
2019-05-29T03:38:42.425Z,72.08
2019-05-29T03:39:18.933Z,71.76
2019-05-29T03:39:55.264Z,71.48
2019-05-29T03:40:33.145Z,71.55
2019-05-29T03:41:09.075Z,71.55
2019-05-29T03:41:44.741Z,71.52
2019-05-29T03:42:20.566Z,71.58
2019-05-29T03:42:56.719Z,71.51
2019-05-29T03:43:33.622Z,71.36
2019-05-29T03:44:10.707Z,71.24
2019-05-29T03:44:46.797Z,71.17
2019-05-29T03:45:22.842Z,71.31
2019-05-29T03:45:59.119Z,71.15
2019-05-29T03:46:42.706Z,71.01
2019-05-29T03:47:13.125Z,70.88
2019-05-29T03:47:49.008Z,70.88
2019-05-29T03:48:25.991Z,70.97
2019-05-29T03:49:02.288Z,71.02
2019-05-29T03:49:38.129Z,71.02
2019-05-29T03:50:15.913Z,70.88
2019-05-29T03:50:52.124Z,71.06
2019-05-29T03:51:29.672Z,71.02
2019-05-29T03:52:05.977Z,70.93
2019-05-29T03:52:41.629Z,70.43
2019-05-29T03:53:17.899Z,70.33
2019-05-29T03:53:54.006Z,70.12
2019-05-29T03:54:30.924Z,70.30
2019-05-29T03:55:08.147Z,69.77
2019-05-29T03:55:44.478Z,69.77
2019-05-29T03:56:20.474Z,70.03
2019-05-29T03:56:56.371Z,69.93
2019-05-29T03:57:33.890Z,70.03
2019-05-29T03:58:10.067Z,70.01
2019-05-29T03:58:45.997Z,69.88
2019-05-29T03:59:22.195Z,69.85
2019-05-29T03:59:58.465Z,70.03
2019-05-29T04:00:41.365Z,69.94
2019-05-29T04:01:12.524Z,70.04
2019-05-29T04:01:48.177Z,70.09
2019-05-29T04:02:24.046Z,70.25
2019-05-29T04:03:00.517Z,70.34
2019-05-29T04:03:38.056Z,70.29
2019-05-29T04:04:13.692Z,70.27
2019-05-29T04:04:49.747Z,70.30
2019-05-29T04:05:26.827Z,70.36
2019-05-29T04:06:02.815Z,69.97
2019-05-29T04:06:38.877Z,70.07
2019-05-29T04:07:14.536Z,69.97
2019-05-29T04:07:50.353Z,69.82
2019-05-29T04:08:27.415Z,69.94
2019-05-29T04:09:05.344Z,69.77
2019-05-29T04:09:41.249Z,70.03
2019-05-29T04:10:21.031Z,69.70
2019-05-29T04:10:57.709Z,69.58
2019-05-29T04:11:35.435Z,69.44
2019-05-29T04:12:11.815Z,69.64
2019-05-29T04:12:47.495Z,69.50
2019-05-29T04:13:23.993Z,69.58
2019-05-29T04:14:00.073Z,69.50
2019-05-29T04:14:37.743Z,69.75
2019-05-29T04:15:14.025Z,69.70
2019-05-29T04:15:50.548Z,69.97
2019-05-29T04:16:27.585Z,69.70
2019-05-29T04:17:04.449Z,69.45
2019-05-29T04:17:42.160Z,69.48
2019-05-29T04:18:20.861Z,69.30
2019-05-29T04:18:57.902Z,69.16
2019-05-29T04:19:36.863Z,68.89
2019-05-29T04:20:12.676Z,68.68
2019-05-29T04:20:49.723Z,68.70
2019-05-29T04:21:27.907Z,68.72
2019-05-29T04:22:09.845Z,68.79
2019-05-29T04:22:48.010Z,68.74
2019-05-29T04:23:27.805Z,68.21
2019-05-29T04:24:06.625Z,68.38
2019-05-29T04:24:42.416Z,68.49
2019-05-29T04:25:18.442Z,68.38
2019-05-29T04:25:57.338Z,68.31
2019-05-29T04:26:36.175Z,68.09
2019-05-29T04:27:14.592Z,68.06
2019-05-29T04:27:52.593Z,68.13
2019-05-29T04:28:30.359Z,67.92
2019-05-29T04:29:06.877Z,67.81
2019-05-29T04:29:43.686Z,67.55
2019-05-29T04:30:20.200Z,68.03
2019-05-29T04:30:56.838Z,68.03
2019-05-29T04:31:34.353Z,68.31
2019-05-29T04:32:10.318Z,68.13
2019-05-29T04:32:46.666Z,68.21
2019-05-29T04:33:22.584Z,68.34
2019-05-29T04:33:58.490Z,68.31
2019-05-29T04:34:35.846Z,68.20
2019-05-29T04:35:12.736Z,68.19
2019-05-29T04:35:49.073Z,68.17
2019-05-29T04:36:25.140Z,67.98
2019-05-29T04:37:00.952Z,68.09
2019-05-29T04:37:37.283Z,68.10
2019-05-29T04:38:14.756Z,67.92
2019-05-29T04:38:50.787Z,67.70
2019-05-29T04:39:28.266Z,67.61
2019-05-29T04:40:05.256Z,67.68
2019-05-29T04:40:42.899Z,67.65
2019-05-29T04:41:19.091Z,67.81
2019-05-29T04:41:55.202Z,67.67
2019-05-29T04:42:33.496Z,67.63
2019-05-29T04:43:08.949Z,67.63
2019-05-29T04:43:45.236Z,67.50
2019-05-29T04:44:20.925Z,67.60
2019-05-29T04:44:57.247Z,67.69
2019-05-29T04:45:35.313Z,67.44
2019-05-29T04:46:10.666Z,67.44
2019-05-29T04:46:46.548Z,67.64
2019-05-29T04:47:23.010Z,66.96
2019-05-29T04:47:59.059Z,66.96
2019-05-29T04:48:36.207Z,67.35
2019-05-29T04:49:13.442Z,66.84
2019-05-29T04:49:49.971Z,67.02
2019-05-29T04:50:26.886Z,66.69
2019-05-29T04:51:03.349Z,66.57
2019-05-29T04:51:39.993Z,66.61
2019-05-29T04:52:15.950Z,66.67
2019-05-29T04:52:51.998Z,66.96
2019-05-29T04:53:29.429Z,66.55
2019-05-29T04:54:05.715Z,66.66
2019-05-29T04:54:41.933Z,66.63
2019-05-29T04:55:17.604Z,66.29
2019-05-29T04:55:53.775Z,66.39
2019-05-29T04:56:30.720Z,66.25
2019-05-29T04:57:06.720Z,66.57
2019-05-29T04:57:42.676Z,66.57
2019-05-29T04:58:18.710Z,66.83
2019-05-29T04:58:54.358Z,66.22
2019-05-29T04:59:30.876Z,66.00
2019-05-29T05:00:07.593Z,66.30
2019-05-29T05:00:58.112Z,66.20
2019-05-29T05:01:20.822Z,66.10
2019-05-29T05:01:56.929Z,66.17
2019-05-29T05:02:33.054Z,65.88
2019-05-29T05:03:09.330Z,65.79
2019-05-29T05:03:45.397Z,65.63
2019-05-29T05:04:21.040Z,65.48
2019-05-29T05:04:57.326Z,65.52
2019-05-29T05:05:33.560Z,65.52
2019-05-29T05:06:09.266Z,65.77
2019-05-29T05:06:45.121Z,65.70
2019-05-29T05:07:21.875Z,65.92
2019-05-29T05:07:58.227Z,65.76
2019-05-29T05:08:35.323Z,65.95
2019-05-29T05:09:11.730Z,66.22
2019-05-29T05:09:48.262Z,65.63
2019-05-29T05:10:38.311Z,65.63
2019-05-29T05:11:14.916Z,65.39
2019-05-29T05:11:50.613Z,65.27
2019-05-29T05:12:26.739Z,65.66
2019-05-29T05:13:02.831Z,65.85
2019-05-29T05:13:39.704Z,65.48
2019-05-29T05:14:15.748Z,65.40
2019-05-29T05:14:52.504Z,65.51
2019-05-29T05:15:29.522Z,65.05
2019-05-29T05:16:05.690Z,64.79
2019-05-29T05:16:41.813Z,64.79
2019-05-29T05:17:26.061Z,65.24
2019-05-29T05:17:55.403Z,65.03
2019-05-29T05:18:31.740Z,65.09
2019-05-29T05:19:07.554Z,65.07
2019-05-29T05:19:43.519Z,64.72
2019-05-29T05:20:19.569Z,64.88
2019-05-29T05:20:56.036Z,64.92
2019-05-29T05:21:34.487Z,64.92
2019-05-29T05:22:10.899Z,64.03
2019-05-29T05:22:46.915Z,64.03
2019-05-29T05:23:22.802Z,63.95
2019-05-29T05:23:58.822Z,63.88
2019-05-29T05:24:36.396Z,64.70
2019-05-29T05:25:12.341Z,64.70
2019-05-29T05:25:48.465Z,64.01
2019-05-29T05:26:24.110Z,64.09
2019-05-29T05:26:59.964Z,63.70
2019-05-29T05:27:36.444Z,63.70
2019-05-29T05:28:12.248Z,63.21
2019-05-29T05:28:48.121Z,63.09
2019-05-29T05:29:24.311Z,63.30
2019-05-29T05:30:00.784Z,63.75
2019-05-29T05:30:36.685Z,63.17
2019-05-29T05:31:13.143Z,63.11
2019-05-29T05:31:49.394Z,63.67
2019-05-29T05:32:26.164Z,63.67
2019-05-29T05:33:02.405Z,63.55
2019-05-29T05:33:38.671Z,63.32
2019-05-29T05:34:14.932Z,63.00
2019-05-29T05:34:50.978Z,63.31
2019-05-29T05:35:27.019Z,63.49
2019-05-29T05:36:03.297Z,62.91
2019-05-29T05:36:41.020Z,63.04
2019-05-29T05:37:17.125Z,62.94
2019-05-29T05:37:53.574Z,62.78
2019-05-29T05:38:30.600Z,63.22
2019-05-29T05:39:07.927Z,62.81
2019-05-29T05:39:44.557Z,62.52
2019-05-29T05:40:20.617Z,62.43
2019-05-29T05:40:56.647Z,62.82
2019-05-29T05:41:32.745Z,62.54
2019-05-29T05:42:08.850Z,62.46
2019-05-29T05:42:44.863Z,62.10
2019-05-29T05:43:24.653Z,61.85
2019-05-29T05:44:00.798Z,61.85
2019-05-29T05:44:37.128Z,62.29
2019-05-29T05:45:13.320Z,62.51
2019-05-29T05:45:49.374Z,62.09
2019-05-29T05:46:25.044Z,62.08
2019-05-29T05:47:00.960Z,62.08
2019-05-29T05:47:49.744Z,62.20
2019-05-29T05:48:14.431Z,62.13
2019-05-29T05:48:51.013Z,62.58
2019-05-29T05:49:27.414Z,62.58
2019-05-29T05:50:03.111Z,62.81
2019-05-29T05:50:39.420Z,62.81
2019-05-29T05:51:16.127Z,62.71
2019-05-29T05:51:51.766Z,62.61
2019-05-29T05:52:27.625Z,62.86
2019-05-29T05:53:03.673Z,63.17
2019-05-29T05:53:39.538Z,63.19
2019-05-29T05:54:15.781Z,62.53
2019-05-29T05:54:51.820Z,62.53
2019-05-29T05:55:27.507Z,63.25
2019-05-29T05:56:03.346Z,63.15
2019-05-29T05:56:39.737Z,63.10
2019-05-29T05:57:15.883Z,63.38
2019-05-29T05:57:51.828Z,63.44
2019-05-29T05:58:27.904Z,63.61
2019-05-29T05:59:03.565Z,64.27
2019-05-29T05:59:39.869Z,63.71
2019-05-29T06:00:19.572Z,63.56
2019-05-29T06:00:55.486Z,63.48
2019-05-29T06:01:31.824Z,63.64
2019-05-29T06:02:07.924Z,63.41
2019-05-29T06:02:43.600Z,63.41
2019-05-29T06:03:19.536Z,63.16
2019-05-29T06:03:55.970Z,62.85
2019-05-29T06:04:31.843Z,62.85
2019-05-29T06:05:09.042Z,63.11
2019-05-29T06:05:45.108Z,62.55
2019-05-29T06:06:20.759Z,62.60
2019-05-29T06:06:56.663Z,62.60
2019-05-29T06:07:34.095Z,62.55
2019-05-29T06:08:09.735Z,61.95
2019-05-29T06:08:45.836Z,61.52
2019-05-29T06:09:22.014Z,61.41
2019-05-29T06:09:57.701Z,61.36
2019-05-29T06:10:34.064Z,60.77
2019-05-29T06:11:10.249Z,61.09
2019-05-29T06:11:45.925Z,61.17
2019-05-29T06:12:22.389Z,61.20
2019-05-29T06:12:58.617Z,61.21
2019-05-29T06:13:34.303Z,61.11
2019-05-29T06:14:10.118Z,61.51
2019-05-29T06:14:46.180Z,61.53
2019-05-29T06:15:21.840Z,61.53
2019-05-29T06:15:58.762Z,61.64
2019-05-29T06:16:34.829Z,61.61
2019-05-29T06:17:11.751Z,61.42
2019-05-29T06:18:10.097Z,61.44
2019-05-29T06:18:25.699Z,61.72
2019-05-29T06:19:01.405Z,61.93
2019-05-29T06:19:37.315Z,61.93
2019-05-29T06:20:13.718Z,62.66
2019-05-29T06:20:50.233Z,62.34
2019-05-29T06:21:26.134Z,62.50
2019-05-29T06:22:02.927Z,61.97
2019-05-29T06:22:39.239Z,62.17
2019-05-29T06:23:15.506Z,62.25
2019-05-29T06:23:51.862Z,62.18
2019-05-29T06:24:28.016Z,62.04
2019-05-29T06:25:03.883Z,62.03
2019-05-29T06:25:41.954Z,61.68
2019-05-29T06:26:17.977Z,61.53
2019-05-29T06:26:54.307Z,61.28
2019-05-29T06:27:30.508Z,61.70
2019-05-29T06:28:06.495Z,61.96
2019-05-29T06:28:43.456Z,61.70
2019-05-29T06:29:19.670Z,61.32
2019-05-29T06:29:55.458Z,61.67
2019-05-29T06:30:31.344Z,61.88
2019-05-29T06:31:07.730Z,61.51
2019-05-29T06:31:43.511Z,61.23
2019-05-29T06:32:19.813Z,61.09
2019-05-29T06:32:55.941Z,61.52
2019-05-29T06:33:33.330Z,61.00
2019-05-29T06:34:09.818Z,61.07
2019-05-29T06:34:45.850Z,61.02
2019-05-29T06:35:21.915Z,61.08
2019-05-29T06:35:57.872Z,60.82
2019-05-29T06:36:35.479Z,61.01
2019-05-29T06:37:12.558Z,60.93
2019-05-29T06:37:48.406Z,60.94
2019-05-29T06:38:24.535Z,60.79
2019-05-29T06:39:00.845Z,60.86
2019-05-29T06:39:37.675Z,60.75
2019-05-29T06:40:15.317Z,60.82
2019-05-29T06:40:51.272Z,60.31
2019-05-29T06:41:27.840Z,60.12
2019-05-29T06:42:03.930Z,60.27
2019-05-29T06:42:39.890Z,60.22
2019-05-29T06:43:23.938Z,60.44
2019-05-29T06:44:00.032Z,59.68
2019-05-29T06:44:36.603Z,59.68
2019-05-29T06:45:16.074Z,59.21
2019-05-29T06:45:52.516Z,59.39
2019-05-29T06:46:28.412Z,58.89
2019-05-29T06:47:04.258Z,58.60
2019-05-29T06:47:40.955Z,58.83
2019-05-29T06:48:40.459Z,59.00
2019-05-29T06:49:01.680Z,59.06
2019-05-29T06:49:38.011Z,58.78
2019-05-29T06:50:13.681Z,58.71
2019-05-29T06:50:49.515Z,58.14
2019-05-29T06:51:25.638Z,58.14
2019-05-29T06:52:01.346Z,58.30
2019-05-29T06:52:37.440Z,58.19
2019-05-29T06:53:13.606Z,58.46
2019-05-29T06:53:49.633Z,58.37
2019-05-29T06:54:26.605Z,58.58
2019-05-29T06:55:03.492Z,58.74
2019-05-29T06:55:39.897Z,58.61
2019-05-29T06:56:16.832Z,58.46
2019-05-29T06:56:53.314Z,58.20
2019-05-29T06:57:29.099Z,58.03
2019-05-29T06:58:04.935Z,58.26
2019-05-29T06:58:42.262Z,57.79
2019-05-29T06:59:18.112Z,57.75
2019-05-29T06:59:54.469Z,57.70
2019-05-29T07:00:35.287Z,57.15
2019-05-29T07:01:08.007Z,56.80
2019-05-29T07:01:43.883Z,56.46
2019-05-29T07:02:19.913Z,56.74
2019-05-29T07:02:56.306Z,56.53
2019-05-29T07:03:32.213Z,56.07
2019-05-29T07:04:12.345Z,56.09
2019-05-29T07:04:46.588Z,56.09
2019-05-29T07:05:23.983Z,55.98
2019-05-29T07:06:00.059Z,55.82
2019-05-29T07:06:36.507Z,55.36
2019-05-29T07:07:12.555Z,56.04
2019-05-29T07:07:48.778Z,56.12
2019-05-29T07:08:38.069Z,55.93
2019-05-29T07:09:02.104Z,56.10
2019-05-29T07:09:38.862Z,55.91
2019-05-29T07:10:15.254Z,55.72
2019-05-29T07:10:51.706Z,55.84
2019-05-29T07:11:28.409Z,55.67
2019-05-29T07:12:04.681Z,55.35
2019-05-29T07:12:42.418Z,54.66
2019-05-29T07:13:18.740Z,54.00
2019-05-29T07:13:54.632Z,54.61
2019-05-29T07:14:30.778Z,54.34
2019-05-29T07:15:08.093Z,54.12
2019-05-29T07:15:45.740Z,53.85
2019-05-29T07:16:21.898Z,54.09
2019-05-29T07:16:58.105Z,53.52
2019-05-29T07:17:33.782Z,53.38
2019-05-29T07:18:10.659Z,53.81
2019-05-29T07:19:23.306Z,53.81
2019-05-29T07:19:34.366Z,53.95
2019-05-29T07:20:04.210Z,53.71
2019-05-29T07:20:41.006Z,53.50
2019-05-29T07:21:16.788Z,53.67
2019-05-29T07:21:52.640Z,54.50
2019-05-29T07:22:28.877Z,54.28
2019-05-29T07:23:05.798Z,54.40
2019-05-29T07:23:46.126Z,54.04
2019-05-29T07:24:21.252Z,54.25
2019-05-29T07:24:58.008Z,54.83
2019-05-29T07:25:34.411Z,54.91
2019-05-29T07:26:11.464Z,54.12
2019-05-29T07:26:47.722Z,54.29
2019-05-29T07:27:24.171Z,53.92
2019-05-29T07:28:00.770Z,54.06
2019-05-29T07:28:37.216Z,54.16
2019-05-29T07:29:13.245Z,54.48
2019-05-29T07:29:50.195Z,55.05
2019-05-29T07:30:26.717Z,55.02
2019-05-29T07:31:03.939Z,55.44
2019-05-29T07:31:40.969Z,55.52
2019-05-29T07:32:16.663Z,55.39
2019-05-29T07:32:58.699Z,54.47
2019-05-29T07:33:32.243Z,54.50
2019-05-29T07:34:08.503Z,54.85
2019-05-29T07:35:01.358Z,54.37
2019-05-29T07:35:23.036Z,54.80
2019-05-29T07:35:59.896Z,54.77
2019-05-29T07:36:37.813Z,54.46
2019-05-29T07:37:13.838Z,54.02
2019-05-29T07:37:49.776Z,54.14
2019-05-29T07:38:25.797Z,54.48
2019-05-29T07:39:03.841Z,54.77
2019-05-29T07:39:41.274Z,54.63
2019-05-29T07:40:18.576Z,54.96
2019-05-29T07:40:55.051Z,54.83
2019-05-29T07:41:31.455Z,55.02
2019-05-29T07:42:07.934Z,54.90
2019-05-29T07:42:47.939Z,55.37
2019-05-29T07:43:22.339Z,54.89
2019-05-29T07:43:59.348Z,54.59
2019-05-29T07:44:35.965Z,54.47
2019-05-29T07:45:13.155Z,54.58
2019-05-29T07:45:49.558Z,54.99
2019-05-29T07:46:26.297Z,55.26
2019-05-29T07:47:02.668Z,55.16
2019-05-29T07:47:40.464Z,54.87
2019-05-29T07:48:17.756Z,54.63
2019-05-29T07:48:54.007Z,54.88
2019-05-29T07:49:39.290Z,54.87
2019-05-29T07:50:09.270Z,55.38